Time;durP1;ratioP1;P1;durP2;ratioP2;P2;SDS_P1;SDS_P2;PMS_P1;PMS_P2;Temp;Humidity;BMP_temperature;BMP_pressure;BME280_temperature;BME280_humidity;BME280_pressure;Samples;Min_cycle;Max_cycle;Signal;HPM_P1;HPM_P2
2021/12/24 00:01:55;;;;;;;103.28;32.70;;;5.10;99.90;;;;;;5065390;28;20528;-79
2021/12/24 00:04:22;;;;;;;132.57;35.35;;;5.40;99.90;;;;;;5079261;28;20044;-80
2021/12/24 00:06:51;;;;;;;134.43;36.53;;;5.20;99.90;;;;;;5061973;28;20051;-80
2021/12/24 00:09:22;;;;;;;111.18;33.70;;;5.10;99.90;;;;;;5059491;28;20517;-81
2021/12/24 00:11:58;;;;;;;110.20;34.25;;;5.20;99.90;;;;;;5060788;28;20039;-80
2021/12/24 00:14:27;;;;;;;81.07;28.20;;;5.20;99.90;;;;;;5086345;28;20551;-80
2021/12/24 00:16:55;;;;;;;124.40;35.50;;;5.20;99.90;;;;;;5061070;28;20386;-80
2021/12/24 00:35:40;;;;;;;113.72;33.40;;;5.30;99.90;;;;;;5062404;28;20051;-80
2021/12/24 00:38:10;;;;;;;111.22;33.65;;;5.30;99.90;;;;;;5074037;28;20387;-80
2021/12/24 00:40:46;;;;;;;114.32;33.47;;;5.40;99.90;;;;;;5065049;28;20491;-80
2021/12/24 00:43:14;;;;;;;100.47;31.13;;;5.40;99.90;;;;;;5069733;28;20059;-80
2021/12/24 00:45:43;;;;;;;97.97;31.58;;;5.50;99.90;;;;;;5061880;28;20052;-80
2021/12/24 00:48:12;;;;;;;88.40;28.60;;;5.40;99.90;;;;;;5088068;28;20119;-80
2021/12/24 00:56:13;;;;;;;112.28;31.65;;;5.60;99.90;;;;;;5074707;28;20048;-80
2021/12/24 00:58:39;;;;;;;108.13;30.67;;;5.60;99.90;;;;;;5074188;28;20044;-80
2021/12/24 01:01:07;;;;;;;147.10;35.60;;;5.60;99.90;;;;;;5073636;28;20429;-80
2021/12/24 01:03:32;;;;;;;97.15;28.65;;;5.60;99.90;;;;;;5089410;28;20565;-80
2021/12/24 01:05:58;;;;;;;94.05;29.23;;;5.70;99.90;;;;;;5071013;28;20209;-80
2021/12/24 01:08:24;;;;;;;88.93;26.80;;;5.70;99.90;;;;;;5071698;28;20414;-80
2021/12/24 01:10:55;;;;;;;71.57;25.85;;;5.70;99.90;;;;;;5066728;28;20043;-80
2021/12/24 01:13:21;;;;;;;84.75;25.85;;;5.70;99.90;;;;;;5077563;28;20621;-81
2021/12/24 01:16:01;;;;;;;79.45;25.15;;;5.80;99.90;;;;;;5072714;28;20135;-81
2021/12/24 01:18:43;;;;;;;67.40;23.27;;;5.70;99.90;;;;;;5067150;28;20046;-81
2021/12/24 01:21:23;;;;;;;80.10;25.55;;;5.80;99.90;;;;;;5074065;28;20043;-80
2021/12/24 01:23:51;;;;;;;61.50;21.58;;;5.80;99.90;;;;;;5073883;28;20044;-81
2021/12/24 01:27:13;;;;;;;62.70;21.60;;;5.80;99.90;;;;;;5089130;28;20040;-81
2021/12/24 01:40:19;;;;;;;;;;;5.90;99.90;;;;;;5075012;28;20075;-81
2021/12/24 01:42:42;;;;;;;;;;;6.00;99.90;;;;;;5075119;28;19920;-81
2021/12/24 01:45:15;;;;;;;67.20;20.85;;;6.00;99.90;;;;;;5072769;28;19931;-81
2021/12/24 01:47:40;;;;;;;51.30;19.40;;;6.00;99.90;;;;;;5088025;28;20044;-81
2021/12/24 01:50:06;;;;;;;50.30;18.65;;;6.00;99.90;;;;;;5082290;28;20056;-81
2021/12/24 01:52:32;;;;;;;56.10;18.33;;;6.00;99.90;;;;;;5090229;28;20071;-81
2021/12/24 01:54:58;;;;;;;44.90;17.92;;;6.00;99.90;;;;;;5065730;28;20047;-81
2021/12/24 01:57:23;;;;;;;53.00;18.60;;;6.10;99.90;;;;;;5064258;28;20383;-81
2021/12/24 01:59:49;;;;;;;50.15;17.25;;;7.30;99.90;;;;;;5091196;28;20040;-81
2021/12/24 02:02:15;;;;;;;43.15;16.83;;;6.10;99.90;;;;;;5072976;28;20047;-81
2021/12/24 02:04:40;;;;;;;43.78;16.83;;;6.10;99.90;;;;;;5065614;28;20075;-81
2021/12/24 02:07:06;;;;;;;52.78;18.13;;;6.10;99.90;;;;;;5070941;28;20395;-81
2021/12/24 02:09:34;;;;;;;39.97;16.20;;;6.10;99.90;;;;;;5072026;28;20135;-81
2021/12/24 02:12:00;;;;;;;43.28;15.38;;;6.10;99.90;;;;;;5064099;28;20036;-81
2021/12/24 02:14:33;;;;;;;44.28;15.57;;;6.10;99.90;;;;;;5071170;28;20505;-81
2021/12/24 02:30:32;;;;;;;43.22;14.85;;;6.30;99.90;;;;;;5084314;28;20109;-81
2021/12/24 02:32:57;;;;;;;45.05;14.65;;;6.30;99.90;;;;;;5072620;28;20044;-81
2021/12/24 02:35:23;;;;;;;47.65;15.48;;;6.40;99.90;;;;;;5072542;28;20048;-81
2021/12/24 02:37:50;;;;;;;38.92;14.23;;;6.40;99.90;;;;;;5071670;28;20044;-81
2021/12/24 02:40:15;;;;;;;39.42;14.23;;;6.40;99.90;;;;;;5064056;28;20568;-81
2021/12/24 02:42:48;;;;;;;46.55;15.80;;;6.40;99.90;;;;;;5068731;28;20536;-81
2021/12/24 02:45:14;;;;;;;39.67;14.10;;;6.50;99.90;;;;;;5070543;28;20048;-80
2021/12/24 02:55:34;;;;;;;27.23;11.57;;;6.50;99.90;;;;;;5070015;28;20505;-81
2021/12/24 02:58:00;;;;;;;30.25;12.05;;;6.50;99.90;;;;;;5089401;28;20037;-81
2021/12/24 03:00:27;;;;;;;26.92;11.38;;;6.60;99.90;;;;;;5090609;28;20052;-81
2021/12/24 03:02:55;;;;;;;30.67;11.32;;;6.60;99.90;;;;;;5085844;28;20140;-81
2021/12/24 03:05:23;;;;;;;30.52;11.23;;;6.60;99.90;;;;;;5070958;28;20043;-81
2021/12/24 03:07:49;;;;;;;37.08;12.25;;;6.70;99.90;;;;;;5087556;28;20048;-81
2021/12/24 03:10:18;;;;;;;33.15;11.68;;;6.70;99.90;;;;;;5071465;28;20483;-81
2021/12/24 03:12:45;;;;;;;31.55;10.48;;;6.70;99.90;;;;;;5057274;28;20048;-80
2021/12/24 03:15:14;;;;;;;26.92;11.27;;;6.70;99.90;;;;;;5068328;28;20055;-80
2021/12/24 03:17:46;;;;;;;27.85;11.82;;;6.70;99.90;;;;;;5074670;28;20510;-81
2021/12/24 03:20:12;;;;;;;32.60;12.15;;;6.70;99.90;;;;;;5059424;28;20048;-80
2021/12/24 03:25:05;;;;;;;31.75;12.00;;;6.80;99.90;;;;;;5068038;28;20047;-81
2021/12/24 03:27:30;;;;;;;33.35;12.15;;;6.80;99.90;;;;;;5066348;28;20048;-80
2021/12/24 03:29:57;;;;;;;28.55;11.52;;;6.80;99.90;;;;;;5071171;28;20133;-80
2021/12/24 03:32:24;;;;;;;40.63;12.35;;;6.80;99.90;;;;;;5070361;28;20052;-80
2021/12/24 03:34:49;;;;;;;35.40;12.52;;;6.80;99.90;;;;;;5067365;28;20056;-80
2021/12/24 03:37:15;;;;;;;35.67;13.13;;;6.80;99.90;;;;;;5068876;28;20645;-80
2021/12/24 03:39:40;;;;;;;54.53;16.10;;;6.90;99.90;;;;;;5063959;28;20150;-80
2021/12/24 03:42:06;;;;;;;31.40;11.75;;;6.80;99.90;;;;;;5064566;28;20049;-79
2021/12/24 03:44:38;;;;;;;53.47;15.32;;;6.90;99.90;;;;;;5085676;28;20486;-80
2021/12/24 03:47:17;;;;;;;56.08;16.65;;;6.80;99.90;;;;;;5078779;28;20052;-79
2021/12/24 03:52:50;;;;;;;49.40;15.75;;;6.90;99.90;;;;;;5047950;28;20454;-80
2021/12/24 03:55:04;;;;;;;60.53;19.10;;;7.00;99.90;;;;;;5042819;28;20515;-80
2021/12/24 03:57:40;;;;;;;57.85;17.65;;;7.10;99.90;;;;;;5043013;28;20041;-80
2021/12/24 04:00:19;;;;;;;66.45;19.80;;;7.00;99.90;;;;;;5046530;28;20060;-80
2021/12/24 04:02:46;;;;;;;93.95;24.15;;;7.10;99.90;;;;;;5045395;28;20050;-80
2021/12/24 04:05:12;;;;;;;97.65;25.10;;;7.10;99.90;;;;;;5046573;28;20386;-80
2021/12/24 04:07:38;;;;;;;104.15;27.05;;;7.30;99.90;;;;;;5045384;28;20041;-80
2021/12/24 04:10:12;;;;;;;97.50;23.80;;;7.50;99.90;;;;;;5045058;28;20053;-80
2021/12/24 04:12:38;;;;;;;123.15;29.42;;;7.40;99.90;;;;;;5036901;28;20033;-80
2021/12/24 04:15:05;;;;;;;108.45;26.58;;;7.30;99.90;;;;;;5046586;28;20115;-80
2021/12/24 04:17:33;;;;;;;82.25;23.60;;;7.30;99.90;;;;;;5038859;28;20063;-80
2021/12/24 04:25:30;;;;;;;92.97;22.70;;;7.30;99.90;;;;;;5043911;28;20049;-80
2021/12/24 04:28:00;;;;;;;80.32;20.77;;;7.60;99.90;;;;;;5045490;28;20057;-80
2021/12/24 04:30:33;;;;;;;94.97;25.23;;;7.50;99.90;;;;;;5040076;28;20069;-80
2021/12/24 04:51:28;;;;;;;92.50;25.58;;;7.60;99.90;;;;;;5067915;28;20076;-80
2021/12/24 05:04:54;;;;;;;115.83;29.63;;;7.70;99.90;;;;;;5066816;28;20064;-80
2021/12/24 05:09:48;;;;;;;76.90;24.33;;;7.70;99.90;;;;;;5075928;28;20048;-80
2021/12/24 05:12:14;;;;;;;79.28;25.85;;;7.70;99.90;;;;;;5056437;28;20486;-81
2021/12/24 05:14:40;;;;;;;92.03;28.48;;;7.80;99.90;;;;;;5084780;28;20040;-80
2021/12/24 05:17:22;;;;;;;89.95;27.35;;;7.80;99.90;;;;;;5067655;28;20554;-80
2021/12/24 05:22:33;;;;;;;54.30;20.83;;;7.70;99.90;;;;;;5069017;28;20048;-80
2021/12/24 05:25:00;;;;;;;69.82;24.17;;;7.70;99.90;;;;;;5065384;28;20052;-81
2021/12/24 05:27:26;;;;;;;67.93;24.05;;;7.70;99.90;;;;;;5060278;28;20040;-80
2021/12/24 05:29:53;;;;;;;69.30;23.33;;;7.70;99.90;;;;;;5068093;28;20157;-79
2021/12/24 05:32:18;;;;;;;67.35;24.55;;;7.70;99.90;;;;;;5068896;28;20040;-80
2021/12/24 05:34:44;;;;;;;77.20;26.30;;;7.70;99.90;;;;;;5073440;28;20043;-80
2021/12/24 05:37:10;;;;;;;92.38;27.45;;;7.80;99.90;;;;;;5084947;28;20052;-80
2021/12/24 05:39:35;;;;;;;81.45;27.98;;;7.80;99.90;;;;;;5067730;28;20035;-80
2021/12/24 05:42:02;;;;;;;92.30;30.17;;;7.80;99.90;;;;;;5066992;28;20055;-81
2021/12/24 05:44:28;;;;;;;91.03;29.25;;;7.80;99.90;;;;;;5071005;28;20036;-80
2021/12/24 05:46:53;;;;;;;89.30;28.77;;;7.90;99.90;;;;;;5082648;28;20129;-80
2021/12/24 05:49:19;;;;;;;77.70;27.48;;;7.90;99.90;;;;;;5072916;28;20131;-80
2021/12/24 05:51:45;;;;;;;85.07;26.42;;;7.90;99.90;;;;;;5084919;28;20064;-80
2021/12/24 05:54:12;;;;;;;70.03;25.77;;;7.80;99.90;;;;;;5087920;28;20051;-78
2021/12/24 05:56:38;;;;;;;76.35;28.17;;;7.80;99.90;;;;;;5070526;28;20063;-80
2021/12/24 05:59:05;;;;;;;61.80;22.63;;;7.80;99.90;;;;;;5060794;28;20109;-80
2021/12/24 06:01:31;;;;;;;75.57;29.02;;;7.80;99.90;;;;;;5075321;28;20479;-80
2021/12/24 06:03:57;;;;;;;68.78;25.52;;;7.90;99.90;;;;;;5064546;28;20097;-79
2021/12/24 06:06:22;;;;;;;73.30;26.73;;;7.80;99.90;;;;;;5081933;28;20430;-79
2021/12/24 06:08:48;;;;;;;57.97;22.25;;;7.90;99.90;;;;;;5073991;28;20039;-80
2021/12/24 06:11:14;;;;;;;67.90;25.85;;;7.80;99.90;;;;;;5060700;28;20131;-80
2021/12/24 06:13:40;;;;;;;54.30;23.33;;;7.90;99.90;;;;;;5072515;28;20075;-80
2021/12/24 06:16:07;;;;;;;45.80;20.10;;;7.90;99.90;;;;;;5070802;28;20101;-80
2021/12/24 06:18:32;;;;;;;45.22;18.67;;;8.00;99.90;;;;;;5068907;28;20495;-80
2021/12/24 06:21:03;;;;;;;45.75;19.83;;;7.90;99.90;;;;;;5071511;28;20048;-80
2021/12/24 06:23:30;;;;;;;49.33;20.40;;;7.90;99.90;;;;;;5071393;28;20036;-80
2021/12/24 06:25:57;;;;;;;49.15;20.33;;;7.90;99.90;;;;;;5069364;28;20052;-79
2021/12/24 06:28:24;;;;;;;50.15;19.55;;;7.90;99.90;;;;;;5077650;28;20043;-79
2021/12/24 06:30:51;;;;;;;37.15;16.13;;;7.90;99.90;;;;;;5066073;28;20059;-80
2021/12/24 06:33:17;;;;;;;44.88;19.15;;;7.90;99.90;;;;;;5071026;28;20044;-79
2021/12/24 06:35:44;;;;;;;48.25;18.55;;;7.90;99.90;;;;;;5068679;28;20048;-81
2021/12/24 06:38:10;;;;;;;54.67;18.00;;;8.00;99.90;;;;;;5064205;28;20046;-80
2021/12/24 06:40:36;;;;;;;52.47;20.65;;;8.00;99.90;;;;;;5065126;28;20078;-79
2021/12/24 06:43:02;;;;;;;39.75;17.10;;;8.00;99.90;;;;;;5068353;28;20036;-81
2021/12/24 06:45:28;;;;;;;44.22;17.50;;;8.00;99.90;;;;;;5074588;28;20043;-79
2021/12/24 06:47:57;;;;;;;33.17;15.85;;;8.00;99.90;;;;;;5082373;28;20036;-79
2021/12/24 06:50:23;;;;;;;37.30;16.60;;;8.00;99.90;;;;;;5092486;28;20457;-78
2021/12/24 06:52:49;;;;;;;39.35;15.18;;;7.90;99.90;;;;;;5084621;28;20043;-78
2021/12/24 06:55:15;;;;;;;45.33;16.13;;;7.90;99.90;;;;;;5065972;28;20519;-79
2021/12/24 06:57:42;;;;;;;46.83;15.18;;;8.00;99.90;;;;;;5060915;28;20399;-80
2021/12/24 07:00:12;;;;;;;29.98;14.77;;;8.40;99.90;;;;;;5077433;28;20131;-79
2021/12/24 07:02:37;;;;;;;38.33;15.32;;;7.90;99.90;;;;;;5092338;28;20132;-79
2021/12/24 07:05:03;;;;;;;31.63;14.23;;;7.90;99.90;;;;;;5073548;28;20122;-79
2021/12/24 07:07:29;;;;;;;32.63;13.45;;;7.90;99.90;;;;;;5086498;28;20039;-79
2021/12/24 07:09:54;;;;;;;31.60;13.75;;;7.90;99.90;;;;;;5075407;28;20044;-79
2021/12/24 07:12:20;;;;;;;37.38;15.35;;;7.90;99.90;;;;;;5084719;28;20048;-78
2021/12/24 07:14:47;;;;;;;32.60;14.23;;;7.90;99.90;;;;;;5070560;28;20122;-79
2021/12/24 07:17:12;;;;;;;41.35;14.60;;;7.90;99.90;;;;;;5071733;28;20048;-79
2021/12/24 07:19:38;;;;;;;32.30;13.60;;;7.90;99.90;;;;;;5072177;28;20067;-79
2021/12/24 07:22:04;;;;;;;32.00;13.07;;;7.20;99.90;;;;;;5079589;28;20482;-78
2021/12/24 07:24:29;;;;;;;41.90;13.18;;;7.80;99.90;;;;;;5091385;28;20036;-74
2021/12/24 07:26:55;;;;;;;26.42;12.70;;;7.80;99.90;;;;;;5066279;28;20051;-71
2021/12/24 07:29:21;;;;;;;29.48;12.82;;;7.80;99.90;;;;;;5066400;28;20052;-78
2021/12/24 07:31:46;;;;;;;35.88;13.48;;;7.80;99.90;;;;;;5084457;28;20044;-77
2021/12/24 07:34:12;;;;;;;39.17;13.82;;;7.80;99.90;;;;;;5064691;28;20403;-78
2021/12/24 07:36:38;;;;;;;31.67;11.68;;;7.80;99.90;;;;;;5078874;28;20044;-79
2021/12/24 07:39:04;;;;;;;26.05;11.48;;;7.80;99.90;;;;;;5079037;28;20074;-78
2021/12/24 07:41:30;;;;;;;26.38;11.10;;;7.80;99.90;;;;;;5090812;28;20074;-78
2021/12/24 07:43:56;;;;;;;25.65;10.77;;;7.80;99.90;;;;;;5075992;28;20509;-78
2021/12/24 07:46:30;;;;;;;22.58;10.68;;;7.80;99.90;;;;;;5097123;28;20059;-78
2021/12/24 07:49:01;;;;;;;28.27;12.25;;;7.70;99.90;;;;;;5070558;28;20048;-79
2021/12/24 07:54:32;;;;;;;24.25;11.10;;;7.70;99.90;;;;;;4950929;28;20501;-76
2021/12/24 07:56:59;;;;;;;30.50;12.15;;;7.70;99.90;;;;;;4960854;28;20042;-73
2021/12/24 07:59:26;;;;;;;34.97;12.57;;;7.70;99.90;;;;;;4964559;28;20093;-78
2021/12/24 08:01:54;;;;;;;35.95;13.52;;;7.70;99.90;;;;;;4960521;28;20055;-76
2021/12/24 08:04:20;;;;;;;34.00;13.00;;;7.70;99.90;;;;;;4952992;28;20051;-78
2021/12/24 08:06:46;;;;;;;31.95;12.32;;;7.70;99.90;;;;;;5053991;28;20060;-78
2021/12/24 08:09:12;;;;;;;58.67;19.30;;;7.70;99.90;;;;;;5066986;28;20127;-79
2021/12/24 08:11:38;;;;;;;34.45;13.65;;;7.70;99.90;;;;;;5074386;28;20115;-79
2021/12/24 08:14:06;;;;;;;35.38;15.57;;;7.70;99.90;;;;;;5065000;28;20052;-80
2021/12/24 08:16:33;;;;;;;27.58;10.82;;;7.70;99.90;;;;;;5070197;28;20055;-80
2021/12/24 08:18:59;;;;;;;28.55;10.90;;;7.70;99.90;;;;;;5083614;28;20705;-79
2021/12/24 08:21:25;;;;;;;26.48;9.55;;;7.70;99.90;;;;;;5056926;28;20036;-80
2021/12/24 08:23:51;;;;;;;18.85;9.00;;;7.70;99.90;;;;;;5060654;28;20105;-81
2021/12/24 08:26:18;;;;;;;22.40;9.75;;;7.70;99.90;;;;;;5053868;28;20510;-81
2021/12/24 08:28:44;;;;;;;24.48;8.60;;;7.70;99.90;;;;;;5055097;28;20487;-83
2021/12/24 08:31:11;;;;;;;14.35;7.75;;;7.70;99.90;;;;;;5049262;28;20046;-83
2021/12/24 08:33:37;;;;;;;23.15;9.20;;;7.70;99.90;;;;;;5074088;28;20043;-82
2021/12/24 08:36:04;;;;;;;22.98;9.55;;;7.70;99.90;;;;;;5052253;28;20465;-85
2021/12/24 08:38:30;;;;;;;19.50;8.48;;;7.70;99.90;;;;;;5073898;28;20125;-83
2021/12/24 08:40:56;;;;;;;19.35;8.05;;;7.70;99.90;;;;;;5048295;28;20044;-84
2021/12/24 08:43:22;;;;;;;19.45;8.15;;;7.70;99.90;;;;;;5054636;28;20051;-84
2021/12/24 08:45:47;;;;;;;22.33;8.73;;;7.70;99.90;;;;;;5057425;28;20043;-84
2021/12/24 08:48:13;;;;;;;19.73;8.27;;;7.70;99.90;;;;;;5074063;28;20060;-84
2021/12/24 08:50:39;;;;;;;23.48;9.52;;;7.70;99.90;;;;;;5074046;28;20167;-83
2021/12/24 08:53:06;;;;;;;20.75;8.57;;;7.70;99.90;;;;;;5052480;28;20708;-83
2021/12/24 08:55:33;;;;;;;25.67;8.70;;;7.70;99.90;;;;;;5055283;28;20044;-83
2021/12/24 08:57:59;;;;;;;23.95;8.63;;;7.70;99.90;;;;;;5059092;28;20048;-82
2021/12/24 09:00:24;;;;;;;18.33;8.88;;;7.70;99.90;;;;;;5072684;28;20048;-82
2021/12/24 09:02:50;;;;;;;20.48;8.95;;;7.70;99.90;;;;;;5051135;28;20028;-82
2021/12/24 09:05:16;;;;;;;16.52;6.95;;;7.70;99.90;;;;;;5056970;28;20051;-83
2021/12/24 09:07:43;;;;;;;17.65;7.15;;;7.70;99.90;;;;;;5052907;28;20570;-83
2021/12/24 09:10:10;;;;;;;18.67;6.53;;;7.70;99.90;;;;;;5057042;28;20054;-82
2021/12/24 09:12:36;;;;;;;13.70;6.60;;;7.70;99.90;;;;;;5047063;28;20059;-82
2021/12/24 09:15:02;;;;;;;18.38;7.45;;;7.70;99.90;;;;;;5076681;28;20061;-83
2021/12/24 09:17:29;;;;;;;14.50;6.55;;;7.70;99.90;;;;;;5063164;28;20058;-82
2021/12/24 09:19:56;;;;;;;16.80;6.88;;;7.70;99.90;;;;;;5076381;28;20052;-82
2021/12/24 09:22:29;;;;;;;15.98;6.70;;;7.70;99.90;;;;;;5051442;28;20044;-82
2021/12/24 09:24:56;;;;;;;17.73;7.95;;;7.70;99.90;;;;;;5075560;28;20063;-83
2021/12/24 09:27:23;;;;;;;15.82;6.60;;;7.70;99.90;;;;;;5059514;28;20229;-83
2021/12/24 09:29:48;;;;;;;19.02;6.65;;;7.70;99.90;;;;;;5063017;28;20052;-84
2021/12/24 09:32:14;;;;;;;20.15;8.07;;;7.70;99.90;;;;;;5052170;28;20471;-83
2021/12/24 09:34:41;;;;;;;21.30;7.70;;;7.70;99.90;;;;;;5057927;28;20185;-83
2021/12/24 09:37:07;;;;;;;17.63;7.13;;;7.80;99.90;;;;;;5063158;28;20539;-83
2021/12/24 09:39:33;;;;;;;20.00;8.65;;;7.70;99.90;;;;;;5076595;28;20048;-83
2021/12/24 09:42:00;;;;;;;12.45;6.57;;;7.70;99.90;;;;;;5053164;28;20109;-83
2021/12/24 09:44:26;;;;;;;18.08;6.18;;;7.80;99.90;;;;;;5056984;28;21266;-83
2021/12/24 09:46:52;;;;;;;20.90;7.93;;;7.70;99.90;;;;;;5059679;28;20039;-83
2021/12/24 09:49:20;;;;;;;17.88;8.65;;;7.70;99.90;;;;;;5060437;28;20036;-83
2021/12/24 09:51:50;;;;;;;14.65;6.22;;;7.80;99.90;;;;;;5054527;28;20068;-83
2021/12/24 09:54:19;;;;;;;16.00;7.00;;;7.80;99.90;;;;;;5058177;28;20048;-83
2021/12/24 09:56:46;;;;;;;18.88;6.45;;;7.80;99.90;;;;;;5059833;28;20131;-83
2021/12/24 09:59:12;;;;;;;15.88;6.28;;;7.70;99.90;;;;;;5075977;28;20054;-84
2021/12/24 10:01:44;;;;;;;13.27;6.00;;;7.70;99.90;;;;;;5052651;28;20044;-83
2021/12/24 10:04:11;;;;;;;12.93;5.80;;;7.70;99.90;;;;;;5079202;28;20384;-83
2021/12/24 10:06:37;;;;;;;17.30;6.13;;;8.30;99.90;;;;;;5076004;28;20052;-83
2021/12/24 10:09:07;;;;;;;15.10;6.38;;;7.70;99.90;;;;;;5075739;28;20123;-83
2021/12/24 10:11:50;;;;;;;15.70;5.93;;;7.80;99.90;;;;;;5047940;28;20048;-82
2021/12/24 10:14:18;;;;;;;6.72;3.28;;;7.70;99.90;;;;;;5056884;28;20505;-82
2021/12/24 10:16:47;;;;;;;6.40;3.10;;;7.60;99.90;;;;;;5058358;28;20039;-82
2021/12/24 10:19:14;;;;;;;4.38;2.22;;;7.60;99.90;;;;;;5058162;28;20040;-82
2021/12/24 10:21:42;;;;;;;5.00;2.65;;;7.50;99.90;;;;;;5052916;28;20087;-82
2021/12/24 10:24:18;;;;;;;5.30;2.45;;;7.40;99.90;;;;;;5077606;28;20040;-83
2021/12/24 10:26:50;;;;;;;7.95;3.05;;;7.30;99.90;;;;;;5057655;28;20491;-80
2021/12/24 10:29:33;;;;;;;7.72;2.92;;;7.20;99.90;;;;;;5059267;28;20113;-81
2021/12/24 10:32:15;;;;;;;5.65;3.25;;;7.10;99.90;;;;;;5053402;28;20049;-81
2021/12/24 10:34:42;;;;;;;6.20;3.17;;;7.00;99.90;;;;;;5075034;28;20128;-80
2021/12/24 10:37:18;;;;;;;6.20;3.60;;;7.00;99.90;;;;;;5059417;28;20629;-81
2021/12/24 10:39:59;;;;;;;6.28;3.58;;;6.90;99.90;;;;;;5057083;28;20062;-81
2021/12/24 10:42:35;;;;;;;6.50;3.92;;;6.90;99.90;;;;;;5069435;28;20135;-80
2021/12/24 10:45:03;;;;;;;7.75;3.60;;;6.90;99.90;;;;;;5076042;28;20172;-81
2021/12/24 10:47:39;;;;;;;6.75;3.67;;;6.90;99.90;;;;;;5054213;28;20052;-82
2021/12/24 10:50:14;;;;;;;6.70;3.22;;;6.90;99.90;;;;;;5059856;28;20120;-82
2021/12/24 10:55:13;;;;;;;6.20;3.10;;;6.70;99.90;;;;;;5059392;28;20094;-83
2021/12/24 10:57:42;;;;;;;5.60;3.25;;;6.70;99.90;;;;;;5056347;28;20039;-83
2021/12/24 11:00:26;;;;;;;5.95;3.17;;;6.70;99.90;;;;;;5056341;28;20078;-83
2021/12/24 11:02:58;;;;;;;6.35;3.05;;;6.60;99.90;;;;;;5050815;28;20059;-83
2021/12/24 11:05:28;;;;;;;6.65;3.38;;;6.60;99.90;;;;;;5058711;28;20044;-87
2021/12/24 11:07:54;;;;;;;6.00;3.05;;;6.60;99.90;;;;;;5060512;28;20082;-87
2021/12/24 11:10:22;;;;;;;5.65;2.80;;;6.60;99.90;;;;;;5060519;28;20123;-87
2021/12/24 11:12:54;;;;;;;7.53;3.28;;;6.60;99.90;;;;;;5048069;28;20051;-87
2021/12/24 11:15:27;;;;;;;6.70;3.53;;;7.70;99.90;;;;;;5058629;28;20123;-87
2021/12/24 11:18:00;;;;;;;5.68;2.80;;;6.60;99.90;;;;;;5060812;28;20130;-88
2021/12/24 11:20:28;;;;;;;5.60;2.95;;;6.60;99.90;;;;;;5056559;28;20067;-88
2021/12/24 11:22:53;;;;;;;8.38;3.75;;;6.60;99.90;;;;;;5050081;28;20821;-89
2021/12/24 11:25:20;;;;;;;6.20;3.00;;;6.60;99.90;;;;;;5058441;28;20040;-88
2021/12/24 11:27:47;;;;;;;5.25;2.67;;;6.60;99.90;;;;;;5057145;28;20080;-87
2021/12/24 11:30:13;;;;;;;5.18;2.60;;;6.60;99.90;;;;;;5058323;28;20592;-87
2021/12/24 11:32:40;;;;;;;5.55;2.30;;;6.60;99.90;;;;;;5060749;28;20035;-86
2021/12/24 11:35:06;;;;;;;4.93;2.30;;;6.70;99.90;;;;;;5072572;28;20040;-85
2021/12/24 11:37:32;;;;;;;5.40;2.35;;;6.80;99.90;;;;;;5084722;28;20106;-85
2021/12/24 11:40:00;;;;;;;4.43;2.22;;;6.50;99.90;;;;;;5087863;28;20048;-86
2021/12/24 11:42:30;;;;;;;4.65;2.30;;;6.50;99.90;;;;;;5084726;28;20437;-83
2021/12/24 11:44:57;;;;;;;6.50;2.65;;;6.50;99.90;;;;;;5085075;28;20037;-87
2021/12/24 11:47:22;;;;;;;5.95;2.60;;;6.50;99.90;;;;;;5085593;28;20044;-86
2021/12/24 11:49:48;;;;;;;5.60;2.95;;;6.50;99.90;;;;;;5068822;28;20506;-86
2021/12/24 11:52:14;;;;;;;5.75;2.97;;;6.50;99.90;;;;;;5067197;28;20056;-85
2021/12/24 11:54:40;;;;;;;5.60;2.92;;;6.50;99.90;;;;;;5066243;28;20438;-86
2021/12/24 11:57:17;;;;;;;6.25;2.83;;;6.50;99.90;;;;;;5068270;28;20094;-86
2021/12/24 11:59:43;;;;;;;4.60;2.65;;;6.50;99.90;;;;;;5066921;28;20044;-86
2021/12/24 12:02:09;;;;;;;5.85;2.80;;;6.50;99.90;;;;;;5061131;28;20080;-86
2021/12/24 12:04:35;;;;;;;6.03;2.60;;;6.50;99.90;;;;;;5058585;28;20491;-86
2021/12/24 12:07:16;;;;;;;5.10;2.72;;;6.50;99.90;;;;;;5070576;28;20824;-86
2021/12/24 12:09:46;;;;;;;4.97;2.60;;;6.50;99.90;;;;;;5069941;28;20467;-86
2021/12/24 12:12:16;;;;;;;5.05;2.60;;;6.50;99.90;;;;;;5055001;28;20506;-85
2021/12/24 12:14:42;;;;;;;4.30;2.53;;;6.50;99.90;;;;;;5069047;28;20143;-85
2021/12/24 12:17:08;;;;;;;5.22;2.55;;;6.50;99.90;;;;;;5057177;28;20107;-85
2021/12/24 12:22:43;;;;;;;5.57;2.63;;;6.50;99.90;;;;;;5082256;28;20109;-85
2021/12/24 12:25:29;;;;;;;4.53;2.35;;;6.50;99.90;;;;;;5067803;28;20048;-85
2021/12/24 12:27:58;;;;;;;5.72;2.83;;;6.50;99.90;;;;;;5060023;28;20475;-85
2021/12/24 12:30:39;;;;;;;6.25;3.10;;;6.50;99.90;;;;;;5069909;28;20208;-85
2021/12/24 12:33:15;;;;;;;26.73;15.27;;;6.50;99.90;;;;;;5064804;28;20500;-85
2021/12/24 12:35:56;;;;;;;7.53;4.50;;;6.50;99.90;;;;;;5058386;28;20397;-80
2021/12/24 12:38:38;;;;;;;7.90;4.25;;;6.40;99.90;;;;;;5062258;28;20447;-80
2021/12/24 12:41:39;;;;;;;6.40;3.42;;;6.40;99.90;;;;;;5055101;28;20483;-79
2021/12/24 12:44:10;;;;;;;6.05;3.55;;;6.10;99.90;;;;;;5067445;28;20058;-80
2021/12/24 12:46:40;;;;;;;9.10;6.03;;;6.40;99.90;;;;;;5065832;28;20093;-80
2021/12/24 12:49:16;;;;;;;22.98;15.23;;;6.40;99.90;;;;;;5082338;28;20040;-81
2021/12/24 12:52:01;;;;;;;18.27;12.15;;;6.40;99.90;;;;;;5081538;28;20411;-82
2021/12/24 12:54:28;;;;;;;23.65;14.25;;;6.40;99.90;;;;;;5070298;28;20032;-82
2021/12/24 12:57:21;;;;;;;17.15;7.68;;;6.40;99.90;;;;;;5062870;28;20032;-84
2021/12/24 13:00:12;;;;;;;13.45;7.00;;;6.40;99.90;;;;;;5068844;28;20067;-83
2021/12/24 13:02:56;;;;;;;38.97;22.50;;;6.50;99.90;;;;;;5070103;28;20048;-82
2021/12/24 13:05:25;;;;;;;5.97;3.30;;;6.50;99.90;;;;;;5068821;28;20051;-83
2021/12/24 13:07:51;;;;;;;5.05;2.75;;;6.50;99.90;;;;;;5068326;28;20506;-81
2021/12/24 13:10:18;;;;;;;5.63;3.13;;;6.40;99.90;;;;;;5074171;28;20071;-83
2021/12/24 13:12:44;;;;;;;6.70;3.00;;;6.40;99.90;;;;;;5083868;28;20115;-84
2021/12/24 13:15:16;;;;;;;4.93;2.55;;;6.50;99.90;;;;;;5066767;28;20040;-83
2021/12/24 13:17:48;;;;;;;8.77;4.95;;;6.40;99.90;;;;;;5092956;28;20048;-84
2021/12/24 13:20:33;;;;;;;19.17;14.88;;;6.40;99.90;;;;;;5067213;28;20047;-82
2021/12/24 13:23:02;;;;;;;5.90;3.40;;;6.40;99.90;;;;;;5086508;28;20056;-81
2021/12/24 13:25:28;;;;;;;6.00;3.58;;;6.40;99.90;;;;;;5087356;28;20036;-82
2021/12/24 13:27:57;;;;;;;8.18;3.50;;;6.40;99.90;;;;;;5088223;28;21534;-82
2021/12/24 13:30:28;;;;;;;6.80;4.10;;;6.40;99.90;;;;;;5068005;28;20036;-82
2021/12/24 13:33:02;;;;;;;7.85;4.20;;;6.40;99.90;;;;;;5064650;28;20041;-83
2021/12/24 13:35:31;;;;;;;6.68;3.47;;;6.40;99.90;;;;;;5087312;28;20380;-82
2021/12/24 13:37:57;;;;;;;5.97;3.35;;;6.50;99.90;;;;;;5070709;28;20035;-82
2021/12/24 13:40:26;;;;;;;7.03;3.65;;;6.50;99.90;;;;;;5073453;28;20040;-81
2021/12/24 13:43:06;;;;;;;8.88;3.88;;;6.50;99.90;;;;;;5087514;28;20044;-81
2021/12/24 13:45:35;;;;;;;6.60;3.22;;;6.50;99.90;;;;;;5069981;28;20052;-81
2021/12/24 13:48:11;;;;;;;6.28;3.65;;;6.50;99.90;;;;;;5063667;28;20040;-80
2021/12/24 13:56:23;;;;;;;5.97;3.42;;;6.80;99.90;;;;;;5085323;28;20048;-81
2021/12/24 13:58:53;;;;;;;5.75;3.58;;;6.50;99.90;;;;;;5087418;28;20081;-80
2021/12/24 14:01:28;;;;;;;6.78;3.55;;;6.50;99.90;;;;;;5068846;28;20059;-80
2021/12/24 14:03:54;;;;;;;;;;;6.50;99.90;;;;;;5086758;28;20035;-81
2021/12/24 14:06:21;;;;;;;5.78;3.55;;;6.50;99.90;;;;;;5067361;28;19924;-80
2021/12/24 14:08:46;;;;;;;6.20;2.80;;;6.50;99.90;;;;;;5080550;28;20089;-81
2021/12/24 14:11:20;;;;;;;6.22;3.30;;;7.20;99.90;;;;;;5078397;28;20039;-81
2021/12/24 14:13:55;;;;;;;6.15;3.60;;;6.40;99.90;;;;;;5088370;28;20121;-79
2021/12/24 14:19:05;;;;;;;6.95;3.65;;;6.40;99.90;;;;;;5087108;28;20501;-79
2021/12/24 14:21:45;;;;;;;9.40;4.40;;;6.40;99.90;;;;;;5086689;28;20040;-80
2021/12/24 14:24:23;;;;;;;7.93;3.47;;;6.40;99.90;;;;;;5070606;28;20036;-82
2021/12/24 14:27:11;;;;;;;6.18;3.10;;;6.40;99.90;;;;;;5086500;28;20156;-82
2021/12/24 14:29:47;;;;;;;8.75;3.83;;;6.40;99.90;;;;;;5067599;28;20032;-83
2021/12/24 14:32:34;;;;;;;8.23;4.30;;;6.40;99.90;;;;;;5078700;28;20055;-84
2021/12/24 14:35:20;;;;;;;9.05;4.70;;;6.30;99.90;;;;;;5088810;28;20052;-83
2021/12/24 14:38:17;;;;;;;8.40;4.55;;;6.30;99.90;;;;;;5087825;28;20048;-83
2021/12/24 14:40:43;;;;;;;8.18;4.20;;;6.30;99.90;;;;;;5082727;28;20051;-83
2021/12/24 14:43:12;;;;;;;10.02;5.22;;;6.40;99.90;;;;;;5079900;28;20032;-82
2021/12/24 14:45:39;;;;;;;10.43;5.72;;;6.30;99.90;;;;;;5071840;28;20069;-82
2021/12/24 14:48:15;;;;;;;8.75;4.43;;;6.40;99.90;;;;;;5085368;28;20099;-83
2021/12/24 14:51:08;;;;;;;6.68;3.92;;;6.30;99.90;;;;;;5059986;28;20066;-82
2021/12/24 14:53:37;;;;;;;9.98;5.22;;;6.30;99.90;;;;;;5081162;28;20055;-82